Time;durP1;ratioP1;P1;durP2;ratioP2;P2;SDS_P1;SDS_P2;PMS_P1;PMS_P2;Temp;Humidity;BMP_temperature;BMP_pressure;BME280_temperature;BME280_humidity;BME280_pressure;Samples;Min_cycle;Max_cycle;Signal;HPM_P1;HPM_P2
2021/07/06 00:01:59;;;;;;;3.33;1.80;;;;;;;15.50;77.62;95130.53;4974691;28;20279;-78
2021/07/06 00:04:25;;;;;;;1.95;1.73;;;;;;;15.51;77.54;95134.78;4973690;28;20264;-76
2021/07/06 00:06:50;;;;;;;1.52;1.40;;;;;;;15.40;78.27;95135.28;4973438;28;20211;-78
2021/07/06 00:09:15;;;;;;;3.85;1.92;;;;;;;15.41;78.41;95131.66;4955957;28;20425;-77
2021/07/06 00:11:41;;;;;;;3.03;1.92;;;;;;;15.41;78.54;95132.47;4974466;28;20204;-77
2021/07/06 00:14:06;;;;;;;2.03;1.83;;;;;;;15.37;78.46;95126.00;4955431;28;20404;-78
2021/07/06 00:16:32;;;;;;;3.47;1.98;;;;;;;15.43;78.69;95129.66;4974542;28;20267;-77
2021/07/06 00:18:57;;;;;;;3.38;1.83;;;;;;;15.43;78.58;95130.47;4952419;28;20198;-77
2021/07/06 00:21:23;;;;;;;1.70;1.60;;;;;;;15.43;78.61;95121.81;4949897;28;20193;-79
2021/07/06 00:23:48;;;;;;;2.10;1.70;;;;;;;15.36;78.95;95123.56;4956906;28;20495;-78
2021/07/06 00:26:14;;;;;;;1.77;1.67;;;;;;;15.34;78.96;95121.13;4973095;28;20205;-77
2021/07/06 00:28:39;;;;;;;4.22;1.70;;;;;;;15.34;78.74;95115.91;4973306;28;20176;-77
2021/07/06 00:31:05;;;;;;;1.70;1.60;;;;;;;15.33;79.04;95116.09;4965485;28;20291;-78
2021/07/06 00:33:30;;;;;;;1.80;1.70;;;;;;;15.37;78.85;95104.25;4973427;28;20181;-78
2021/07/06 00:36:01;;;;;;;1.75;1.65;;;;;;;15.38;78.98;95108.50;4973071;28;20525;-77
2021/07/06 00:38:28;;;;;;;4.38;1.95;;;;;;;15.28;79.25;95109.63;4974457;28;20204;-78
2021/07/06 00:40:54;;;;;;;3.13;1.85;;;;;;;15.26;79.48;95110.78;4971034;28;20188;-77
2021/07/06 00:43:19;;;;;;;2.60;1.75;;;;;;;15.26;79.30;95098.50;4973719;28;20215;-78
2021/07/06 00:45:45;;;;;;;2.47;2.00;;;;;;;15.26;79.39;95087.25;4956652;28;20184;-79
2021/07/06 00:48:10;;;;;;;4.63;1.92;;;;;;;15.21;79.33;95098.28;4972833;28;20521;-77
2021/07/06 00:50:35;;;;;;;4.28;2.03;;;;;;;15.25;79.34;95096.91;4973068;28;20230;-78
2021/07/06 00:53:01;;;;;;;3.50;2.00;;;;;;;15.30;79.05;95094.53;4972615;28;20197;-78
2021/07/06 00:55:26;;;;;;;2.33;2.03;;;;;;;15.32;79.18;95091.72;4974076;28;20189;-78
2021/07/06 00:57:51;;;;;;;3.08;1.85;;;;;;;15.38;79.21;95092.81;4972348;28;20196;-79
2021/07/06 01:00:20;;;;;;;2.85;1.75;;;;;;;15.28;79.34;95080.00;4956510;28;20275;-77
2021/07/06 01:02:45;;;;;;;3.85;2.35;;;;;;;15.26;79.59;95084.63;4971207;28;20205;-78
2021/07/06 01:05:14;;;;;;;3.00;2.15;;;;;;;15.20;79.91;95082.78;4972624;28;20226;-78
2021/07/06 01:07:40;;;;;;;2.83;1.65;;;;;;;15.25;79.82;95069.94;4955963;28;20183;-78
2021/07/06 01:10:06;;;;;;;2.83;1.88;;;;;;;15.16;80.24;95077.09;4973722;28;20180;-78
2021/07/06 01:12:33;;;;;;;1.90;1.70;;;;;;;15.20;80.06;95083.59;4936351;28;20220;-79
2021/07/06 01:15:03;;;;;;;2.47;1.65;;;;;;;15.18;80.18;95076.91;4968107;28;20580;-78
2021/07/06 01:17:30;;;;;;;2.85;1.98;;;;;;;15.15;80.24;95074.69;4955952;28;20305;-78
2021/07/06 01:20:00;;;;;;;1.85;1.75;;;;;;;15.16;80.29;95071.88;4972235;28;20181;-79
2021/07/06 01:22:28;;;;;;;2.35;1.90;;;;;;;15.10;80.57;95077.84;4970352;28;20207;-78
2021/07/06 01:24:54;;;;;;;2.85;1.80;;;;;;;15.18;80.34;95064.63;4987254;28;20604;-77
2021/07/06 01:27:19;;;;;;;2.00;1.80;;;;;;;15.17;80.80;95059.59;4972286;28;20215;-78
2021/07/06 01:29:45;;;;;;;3.30;1.90;;;;;;;15.15;80.51;95070.25;4988417;28;20176;-79
2021/07/06 01:32:10;;;;;;;2.80;1.77;;;;;;;15.21;79.96;95058.25;4955875;28;20228;-78
2021/07/06 01:34:36;;;;;;;4.95;2.00;;;;;;;15.16;80.23;95053.56;4971050;28;20271;-78
2021/07/06 01:37:01;;;;;;;2.50;2.00;;;;;;;15.14;80.18;95046.91;4971838;28;20672;-78
2021/07/06 01:39:29;;;;;;;2.90;1.85;;;;;;;15.13;80.45;95055.75;4972298;28;20192;-78
2021/07/06 01:41:55;;;;;;;2.90;1.90;;;;;;;15.12;80.33;95044.47;4973017;28;20197;-78
2021/07/06 01:44:27;;;;;;;4.57;1.98;;;;;;;15.15;80.22;95040.69;4971639;28;20230;-78
2021/07/06 01:46:53;;;;;;;3.10;2.33;;;;;;;15.15;80.33;95038.06;4976296;28;20180;-78
2021/07/06 01:49:19;;;;;;;3.63;2.05;;;;;;;15.10;80.38;95037.81;4975871;28;20183;-78
2021/07/06 01:51:45;;;;;;;3.60;2.17;;;;;;;15.11;80.51;95037.63;4959629;28;20196;-78
2021/07/06 01:54:12;;;;;;;4.15;2.20;;;;;;;15.08;80.54;95031.97;4977060;28;20168;-78
2021/07/06 01:56:45;;;;;;;3.42;2.15;;;;;;;14.98;80.72;95025.22;4974803;28;20606;-78
2021/07/06 01:59:11;;;;;;;4.18;2.75;;;;;;;14.95;80.99;95043.13;4975952;28;20184;-77
2021/07/06 02:01:38;;;;;;;2.55;2.10;;;;;;;14.95;80.94;95040.50;4959390;28;20227;-76
2021/07/06 02:04:04;;;;;;;3.10;2.00;;;;;;;14.93;80.80;95034.63;4975696;28;20212;-77
2021/07/06 02:06:30;;;;;;;2.93;1.77;;;;;;;14.87;81.17;95032.78;4974005;28;20188;-78
2021/07/06 02:08:56;;;;;;;2.73;2.40;;;;;;;14.90;81.03;95033.19;4975498;28;20191;-77
2021/07/06 02:11:21;;;;;;;2.88;2.00;;;;;;;14.91;81.00;95029.59;4959149;28;20180;-75
2021/07/06 02:13:48;;;;;;;3.35;2.20;;;;;;;14.84;80.90;95031.34;4959270;28;20176;-76
2021/07/06 02:16:13;;;;;;;3.50;1.80;;;;;;;14.81;81.41;95026.47;4958036;28;20185;-78
2021/07/06 02:18:39;;;;;;;3.60;2.07;;;;;;;14.92;80.94;95012.91;4959175;28;20208;-78
2021/07/06 02:21:04;;;;;;;2.53;1.85;;;;;;;14.87;81.09;95011.88;4975242;28;20181;-77
2021/07/06 02:23:31;;;;;;;2.23;2.03;;;;;;;14.85;81.06;95022.50;4975147;28;20176;-77
2021/07/06 02:26:04;;;;;;;3.97;2.17;;;;;;;14.82;81.35;95028.09;4959384;28;20207;-78
2021/07/06 02:28:31;;;;;;;3.57;2.40;;;;;;;14.80;81.34;95024.88;4974129;28;20283;-77
2021/07/06 02:30:56;;;;;;;2.77;2.00;;;;;;;14.81;81.17;95017.81;4955733;29;20268;-78
2021/07/06 02:33:22;;;;;;;3.22;2.10;;;;;;;14.79;80.89;95012.78;4955618;29;20193;-77
2021/07/06 02:35:48;;;;;;;3.53;2.03;;;;;;;14.78;80.97;95016.41;4955508;29;20276;-77
2021/07/06 02:38:14;;;;;;;3.83;2.17;;;;;;;14.80;81.09;95014.41;4965232;28;20767;-78
2021/07/06 02:40:40;;;;;;;2.77;2.20;;;;;;;14.75;81.44;95019.38;4975474;28;20212;-78
2021/07/06 02:43:05;;;;;;;4.10;2.10;;;;;;;14.71;81.13;95020.75;4958467;28;20223;-78
2021/07/06 02:45:31;;;;;;;2.93;1.77;;;;;;;14.73;80.97;95022.19;4975139;28;20188;-79
2021/07/06 02:47:57;;;;;;;2.47;2.10;;;;;;;14.76;81.05;95020.22;4974661;28;20554;-78
2021/07/06 02:50:24;;;;;;;2.33;2.13;;;;;;;14.81;80.71;95016.03;4973501;28;20189;-78
2021/07/06 02:52:50;;;;;;;2.30;2.10;;;;;;;14.75;81.12;95016.75;4974478;28;20703;-78
2021/07/06 02:55:15;;;;;;;5.77;2.03;;;;;;;14.83;80.76;95021.88;4974272;28;20176;-78
2021/07/06 02:57:41;;;;;;;4.05;2.20;;;;;;;14.91;80.12;95013.91;4974721;28;20201;-78
2021/07/06 03:00:10;;;;;;;2.20;1.90;;;;;;;14.85;80.43;95011.25;4973628;28;20193;-78
2021/07/06 03:02:41;;;;;;;3.37;1.93;;;;;;;14.84;80.28;95007.81;4957973;28;20287;-77
2021/07/06 03:05:08;;;;;;;6.30;2.17;;;;;;;14.83;80.34;94998.34;4974757;28;20177;-78
2021/07/06 03:07:35;;;;;;;2.00;1.80;;;;;;;14.85;80.20;94990.34;4974301;28;20243;-78
2021/07/06 03:10:21;;;;;;;3.47;2.07;;;;;;;14.89;79.98;94986.34;4972921;28;20177;-77
2021/07/06 03:12:46;;;;;;;2.10;1.90;;;;;;;14.93;80.09;94991.03;4958047;28;20598;-78
2021/07/06 03:15:14;;;;;;;2.38;2.17;;;;;;;14.88;80.15;94993.38;4975860;28;20173;-78
2021/07/06 03:17:39;;;;;;;3.73;1.80;;;;;;;14.91;79.99;94985.16;4978301;28;20302;-78
2021/07/06 03:20:08;;;;;;;3.80;1.87;;;;;;;14.91;79.68;94982.53;4981047;28;20177;-78
2021/07/06 03:22:33;;;;;;;3.17;1.93;;;;;;;14.88;79.92;94990.75;4973924;28;20219;-77
2021/07/06 03:24:58;;;;;;;3.23;2.50;;;;;;;14.80;80.29;94975.19;4958096;28;20184;-77
2021/07/06 03:27:24;;;;;;;2.77;2.07;;;;;;;14.82;80.17;94972.41;4957952;28;20231;-78
2021/07/06 03:29:50;;;;;;;2.15;1.88;;;;;;;14.82;80.11;94977.63;4957945;28;20235;-77
2021/07/06 03:32:15;;;;;;;3.42;1.92;;;;;;;14.85;79.79;94972.03;4946775;28;20256;-77
2021/07/06 03:34:41;;;;;;;3.17;2.10;;;;;;;14.84;79.74;94967.78;4974044;28;20176;-76
2021/07/06 03:37:07;;;;;;;2.80;2.20;;;;;;;14.89;79.32;94960.19;4957723;28;20200;-76
2021/07/06 03:39:37;;;;;;;2.97;2.10;;;;;;;14.89;79.72;94965.44;4975175;28;20183;-77
2021/07/06 03:42:06;;;;;;;1.93;1.83;;;;;;;14.96;79.05;94951.41;4972662;28;20593;-77
2021/07/06 03:44:32;;;;;;;3.23;1.80;;;;;;;15.01;78.94;94950.84;4974096;28;20611;-76
2021/07/06 03:46:58;;;;;;;3.03;2.27;;;;;;;15.10;78.60;94951.50;4958157;28;20267;-77
2021/07/06 03:49:23;;;;;;;1.73;1.63;;;;;;;15.12;78.45;94945.09;4975273;28;20247;-77
2021/07/06 03:51:48;;;;;;;2.03;1.83;;;;;;;15.18;77.91;94946.13;4973973;28;20200;-77
2021/07/06 03:54:14;;;;;;;2.47;1.93;;;;;;;15.20;77.48;94947.59;4990507;28;20185;-78
2021/07/06 03:56:39;;;;;;;2.47;2.27;;;;;;;15.51;76.51;94949.78;4975105;28;20177;-77
2021/07/06 03:59:05;;;;;;;2.17;1.65;;;;;;;16.84;70.94;94940.63;4975159;28;20224;-77
2021/07/06 04:01:33;;;;;;;2.47;1.70;;;;;;;18.24;66.71;94952.50;4957332;28;20247;-77
2021/07/06 04:03:58;;;;;;;2.08;1.40;;;;;;;19.37;62.11;94952.59;4954041;28;20189;-77
2021/07/06 04:06:23;;;;;;;3.17;1.60;;;;;;;19.73;59.40;94958.97;4973115;28;20232;-75
2021/07/06 04:08:49;;;;;;;4.30;1.60;;;;;;;20.53;57.31;94958.84;4956226;28;20184;-78
2021/07/06 04:11:14;;;;;;;2.90;1.50;;;;;;;21.10;54.96;94962.69;4973130;28;20176;-76
2021/07/06 04:13:39;;;;;;;2.47;1.30;;;;;;;21.14;54.33;94960.41;4955534;28;20223;-77
2021/07/06 04:16:05;;;;;;;1.20;1.10;;;;;;;21.97;52.04;94957.56;4974462;28;20208;-76
2021/07/06 04:18:30;;;;;;;1.67;1.13;;;;;;;22.56;49.86;94945.00;4973367;28;20270;-77
2021/07/06 04:20:55;;;;;;;2.72;1.27;;;;;;;20.83;53.88;94935.09;4973288;28;20184;-77
2021/07/06 04:23:20;;;;;;;4.75;1.45;;;;;;;20.04;56.59;94935.09;4972997;28;20239;-77
2021/07/06 04:25:46;;;;;;;1.80;1.65;;;;;;;19.98;57.29;94924.66;4954648;28;20191;-77
2021/07/06 04:28:11;;;;;;;1.55;1.45;;;;;;;20.72;54.85;94927.94;4972938;28;20192;-78
2021/07/06 04:30:36;;;;;;;4.18;1.33;;;;;;;21.99;50.92;94930.88;4974254;28;20181;-77
2021/07/06 04:33:02;;;;;;;2.22;1.58;;;;;;;22.60;49.04;94945.31;4974114;28;20223;-77
2021/07/06 04:35:27;;;;;;;3.63;1.50;;;;;;;23.19;48.13;94943.19;4949422;29;20181;-79
2021/07/06 04:37:52;;;;;;;2.60;1.50;;;;;;;22.75;48.74;94937.66;4953517;28;20223;-77
2021/07/06 04:40:18;;;;;;;1.20;1.10;;;;;;;22.20;49.69;94930.31;4972892;28;20633;-77
2021/07/06 04:42:43;;;;;;;3.22;1.10;;;;;;;23.69;46.35;94929.16;4972752;28;20560;-77
2021/07/06 04:45:10;;;;;;;4.70;1.25;;;;;;;22.80;48.69;94940.41;4955940;28;20570;-78
2021/07/06 04:47:35;;;;;;;1.73;1.40;;;;;;;22.40;49.04;94943.09;4973760;28;20200;-78
2021/07/06 04:50:00;;;;;;;5.05;1.50;;;;;;;22.39;49.90;94948.63;4956992;28;20208;-78
2021/07/06 04:52:26;;;;;;;3.33;1.50;;;;;;;21.12;53.56;94950.09;4956417;28;20664;-76
2021/07/06 04:54:51;;;;;;;1.40;1.30;;;;;;;20.07;56.81;94953.13;4972735;28;20181;-78
2021/07/06 04:57:21;;;;;;;2.08;1.50;;;;;;;19.04;59.86;94946.78;4971736;28;20210;-76
2021/07/06 04:59:47;;;;;;;4.25;1.60;;;;;;;18.21;62.82;94936.34;4953751;28;20724;-78
2021/07/06 05:02:12;;;;;;;4.00;1.80;;;;;;;17.76;64.75;94939.75;4937248;29;20208;-76
2021/07/06 05:04:37;;;;;;;5.60;1.52;;;;;;;17.44;66.09;94951.09;4953200;29;20177;-77
2021/07/06 05:07:03;;;;;;;3.88;1.70;;;;;;;17.32;66.79;94952.75;4941766;28;20188;-77
2021/07/06 05:09:31;;;;;;;1.33;1.15;;;;;;;19.04;62.08;94939.69;4972511;28;20191;-76
2021/07/06 05:11:56;;;;;;;1.70;1.20;;;;;;;22.03;52.97;94939.97;4956297;28;20223;-77
2021/07/06 05:14:21;;;;;;;1.08;0.98;;;;;;;23.28;49.13;94928.50;4972761;28;20180;-77
2021/07/06 05:16:46;;;;;;;1.92;1.13;;;;;;;25.09;44.20;94919.63;4973640;28;20647;-78
2021/07/06 05:19:12;;;;;;;2.25;1.27;;;;;;;25.28;43.03;94920.03;4971204;28;20219;-77
2021/07/06 05:21:37;;;;;;;2.22;1.15;;;;;;;27.10;39.27;94923.75;4971986;28;20239;-77
2021/07/06 05:24:03;;;;;;;1.33;1.23;;;;;;;26.57;38.87;94939.06;4972326;28;20176;-76
2021/07/06 05:26:28;;;;;;;1.55;1.27;;;;;;;26.24;39.65;94938.44;4972610;28;20670;-80
2021/07/06 05:28:53;;;;;;;4.55;1.00;;;;;;;27.33;38.11;94952.53;4972401;28;20263;-77
2021/07/06 05:31:19;;;;;;;2.58;1.10;;;;;;;26.71;39.33;94955.38;4941838;28;20185;-75
2021/07/06 05:33:44;;;;;;;1.10;1.00;;;;;;;28.10;36.78;94947.13;4968487;28;20180;-78
2021/07/06 05:36:09;;;;;;;2.22;1.13;;;;;;;28.06;36.56;94943.38;4971204;28;20227;-76
2021/07/06 05:38:35;;;;;;;2.35;1.10;;;;;;;29.23;34.12;94943.59;4970010;28;21139;-77
2021/07/06 05:41:02;;;;;;;2.58;1.08;;;;;;;29.72;32.74;94942.69;4971628;28;20850;-77
2021/07/06 05:43:27;;;;;;;2.47;0.80;;;;;;;29.49;33.70;94944.22;4953888;28;20282;-77
2021/07/06 05:45:53;;;;;;;2.45;1.25;;;;;;;29.51;33.05;94944.78;4971597;28;20176;-78
2021/07/06 05:48:19;;;;;;;0.90;0.73;;;;;;;29.45;33.47;94937.03;4954017;28;20184;-78
2021/07/06 05:50:44;;;;;;;0.88;0.88;;;;;;;28.16;35.45;94948.69;4966541;28;20187;-78
2021/07/06 05:53:11;;;;;;;1.52;1.05;;;;;;;28.70;34.78;94951.41;4956548;28;20196;-79
2021/07/06 05:55:37;;;;;;;1.10;1.00;;;;;;;28.43;35.00;94951.81;4956201;28;20202;-78
2021/07/06 05:58:03;;;;;;;1.25;0.85;;;;;;;29.93;32.96;94951.31;4965428;28;20200;-78
2021/07/06 06:00:28;;;;;;;1.88;0.82;;;;;;;29.57;33.19;94967.69;4959181;28;20192;-78
2021/07/06 06:02:53;;;;;;;1.77;0.98;;;;;;;28.86;34.41;94984.19;4975760;28;20204;-76
2021/07/06 06:05:19;;;;;;;2.22;0.90;;;;;;;27.99;35.78;94982.91;4977308;28;20176;-77
2021/07/06 06:07:44;;;;;;;5.82;2.05;;;;;;;28.11;35.79;94978.88;4974149;28;20176;-78
2021/07/06 06:10:11;;;;;;;2.90;1.00;;;;;;;29.11;34.36;94985.16;4972751;28;20208;-78
2021/07/06 06:12:37;;;;;;;1.45;0.90;;;;;;;28.52;34.94;94975.28;4970916;28;20216;-78
2021/07/06 06:15:04;;;;;;;0.90;0.90;;;;;;;27.73;36.79;94961.59;4972188;28;20227;-78
2021/07/06 06:17:29;;;;;;;1.42;0.98;;;;;;;27.85;36.41;94943.44;4973393;28;20197;-78
2021/07/06 06:19:54;;;;;;;0.93;0.73;;;;;;;27.03;38.03;94947.19;4973174;28;20231;-78
2021/07/06 06:22:20;;;;;;;1.95;0.90;;;;;;;26.10;40.18;94953.25;4970972;28;20207;-77
2021/07/06 06:24:45;;;;;;;1.83;0.73;;;;;;;27.66;37.09;94947.75;4964154;28;20223;-76
2021/07/06 06:27:10;;;;;;;1.65;0.80;;;;;;;27.18;38.31;94959.72;4984012;28;20176;-77
2021/07/06 06:29:35;;;;;;;1.00;0.90;;;;;;;28.44;35.95;94972.09;4983134;28;20243;-79
2021/07/06 06:32:01;;;;;;;2.90;1.10;;;;;;;28.45;35.14;94986.28;4972449;28;20243;-76
2021/07/06 06:34:26;;;;;;;1.65;1.05;;;;;;;28.64;35.26;94981.13;4975040;28;20561;-77
2021/07/06 06:36:52;;;;;;;0.73;0.70;;;;;;;29.11;34.40;94991.28;4984781;28;20191;-77
2021/07/06 06:39:17;;;;;;;0.93;0.93;;;;;;;28.88;35.12;94987.38;4975117;28;20204;-77
2021/07/06 06:41:43;;;;;;;1.92;1.20;;;;;;;25.97;41.14;94985.63;4976049;28;20223;-77
2021/07/06 06:44:08;;;;;;;2.30;0.80;;;;;;;27.18;38.26;94987.19;4959233;28;20184;-77
2021/07/06 06:46:34;;;;;;;1.30;1.20;;;;;;;29.20;34.40;94991.50;4975801;28;20179;-78
2021/07/06 06:49:04;;;;;;;2.70;1.00;;;;;;;28.99;35.14;94988.19;4973830;28;20644;-77
2021/07/06 06:51:29;;;;;;;1.20;1.00;;;;;;;28.96;35.07;94989.50;4984930;28;20721;-77
2021/07/06 06:53:54;;;;;;;4.72;1.40;;;;;;;27.51;37.57;94980.53;4968780;28;20288;-77
2021/07/06 06:56:20;;;;;;;1.70;0.90;;;;;;;28.65;35.33;94972.03;4975265;28;20227;-78
2021/07/06 06:58:45;;;;;;;3.97;1.08;;;;;;;28.24;36.49;94956.13;4974639;28;20548;-77
2021/07/06 07:01:10;;;;;;;2.92;0.93;;;;;;;27.79;37.86;94949.06;4976574;28;20180;-76
2021/07/06 07:03:36;;;;;;;1.25;1.00;;;;;;;26.41;40.48;94966.72;4975054;28;20636;-78
2021/07/06 07:06:01;;;;;;;1.20;1.10;;;;;;;26.52;40.09;94973.69;4974309;28;20195;-78
2021/07/06 07:08:27;;;;;;;1.90;0.95;;;;;;;24.92;44.00;94964.06;4966958;28;20188;-76
2021/07/06 07:10:52;;;;;;;2.70;1.30;;;;;;;24.79;44.80;94972.41;4975271;28;20180;-76
2021/07/06 07:13:17;;;;;;;2.80;0.93;;;;;;;24.82;45.07;94987.81;4974389;28;20196;-76
2021/07/06 07:15:43;;;;;;;2.55;1.17;;;;;;;24.52;46.19;95005.03;4973403;28;20184;-76
2021/07/06 07:18:08;;;;;;;2.35;0.98;;;;;;;24.17;47.13;94996.59;4974391;28;20234;-77
2021/07/06 07:20:33;;;;;;;2.40;1.00;;;;;;;24.09;47.36;94999.66;4975803;28;20169;-77
2021/07/06 07:22:59;;;;;;;0.80;0.80;;;;;;;23.89;47.89;94995.69;4957890;28;20204;-77
2021/07/06 07:25:24;;;;;;;1.80;0.95;;;;;;;24.14;48.34;94981.19;4975217;28;20230;-76
2021/07/06 07:27:50;;;;;;;1.13;0.80;;;;;;;24.30;47.51;94980.34;4974880;28;20271;-76
2021/07/06 07:30:17;;;;;;;2.30;0.90;;;;;;;23.63;48.50;94975.97;4974739;28;20564;-75
2021/07/06 07:32:43;;;;;;;2.15;0.90;;;;;;;23.76;49.20;94972.16;4973710;28;20258;-77
2021/07/06 07:35:09;;;;;;;2.10;0.90;;;;;;;23.56;49.96;94969.19;4974287;28;20185;-76
2021/07/06 07:37:34;;;;;;;1.52;0.80;;;;;;;24.04;49.20;94965.94;4973393;28;20247;-77
2021/07/06 07:40:00;;;;;;;1.52;0.90;;;;;;;24.54;47.77;94967.63;4959056;28;20177;-75
2021/07/06 07:42:26;;;;;;;1.73;0.90;;;;;;;24.43;48.06;94965.91;4993472;28;20212;-77
2021/07/06 07:44:51;;;;;;;1.00;0.90;;;;;;;24.17;47.98;94957.59;4999491;28;20763;-77
2021/07/06 07:47:17;;;;;;;1.15;0.80;;;;;;;23.78;49.79;94970.09;5008005;28;20192;-77
2021/07/06 07:49:42;;;;;;;1.00;0.88;;;;;;;23.53;50.15;94978.44;4992994;28;20179;-78
2021/07/06 07:52:08;;;;;;;0.93;0.93;;;;;;;23.55;50.64;94979.00;5007643;28;20354;-77
2021/07/06 07:54:34;;;;;;;1.48;1.10;;;;;;;23.81;50.81;94982.84;5012787;28;20225;-77
2021/07/06 07:56:59;;;;;;;1.20;1.10;;;;;;;24.89;47.78;94991.09;5012370;28;20179;-76
2021/07/06 07:59:25;;;;;;;1.20;0.90;;;;;;;25.93;45.83;94988.00;4992117;28;20188;-78
2021/07/06 08:01:50;;;;;;;1.48;1.10;;;;;;;27.04;43.89;94986.13;4995215;28;20196;-77
2021/07/06 08:04:15;;;;;;;2.28;1.05;;;;;;;27.66;40.50;94966.44;4993643;28;20251;-78
2021/07/06 08:06:41;;;;;;;1.05;0.82;;;;;;;27.04;41.80;94980.78;4992976;28;20615;-77
2021/07/06 08:09:07;;;;;;;3.30;0.90;;;;;;;26.54;42.82;94980.34;4992088;28;20219;-76
2021/07/06 08:11:33;;;;;;;2.65;1.10;;;;;;;25.64;45.21;94992.84;4997113;28;20200;-78
2021/07/06 08:13:58;;;;;;;1.15;1.05;;;;;;;25.60;45.96;95005.03;4978322;28;20530;-76
2021/07/06 08:16:23;;;;;;;1.83;1.25;;;;;;;24.78;48.14;95019.41;4992482;28;20172;-77
2021/07/06 08:18:49;;;;;;;1.05;0.95;;;;;;;24.57;47.81;95034.28;4991951;28;20272;-76
2021/07/06 08:21:14;;;;;;;1.80;0.90;;;;;;;24.88;48.02;95044.47;4993236;28;20172;-77
2021/07/06 08:23:40;;;;;;;1.63;1.00;;;;;;;24.80;48.70;95045.69;4992092;28;20195;-77
2021/07/06 08:26:05;;;;;;;2.78;1.08;;;;;;;24.69;49.91;95057.25;4990584;28;20184;-77
2021/07/06 08:28:30;;;;;;;1.98;1.10;;;;;;;24.47;49.75;95057.22;4993434;28;20204;-76
2021/07/06 08:30:56;;;;;;;1.10;1.00;;;;;;;24.14;51.15;95076.69;4988298;28;21028;-77
2021/07/06 08:33:21;;;;;;;3.22;1.00;;;;;;;23.98;51.93;95084.41;4989639;28;20199;-76
2021/07/06 08:35:47;;;;;;;2.53;1.20;;;;;;;23.98;52.72;95113.56;4989850;28;20179;-75
2021/07/06 08:38:13;;;;;;;1.92;1.40;;;;;;;23.73;53.59;95131.72;4990061;28;20223;-76
2021/07/06 08:40:39;;;;;;;1.67;1.05;;;;;;;22.85;57.01;95148.84;4996880;28;20186;-74
2021/07/06 08:43:06;;;;;;;1.80;1.50;;;;;;;22.68;58.06;95148.72;5005223;28;20722;-76
2021/07/06 08:45:32;;;;;;;1.30;1.20;;;;;;;21.93;58.73;95165.25;4989466;28;20257;-75
2021/07/06 08:47:58;;;;;;;5.53;1.77;;;;;;;21.72;59.95;95187.72;4971678;28;20585;-76
2021/07/06 08:50:24;;;;;;;5.30;1.67;;;;;;;21.25;60.76;95188.53;4987841;28;20207;-75
2021/07/06 08:52:49;;;;;;;2.55;1.73;;;;;;;20.87;61.80;95202.81;4989480;28;20215;-75
2021/07/06 08:55:15;;;;;;;5.72;2.00;;;;;;;20.62;63.36;95208.94;4990520;28;20187;-75
2021/07/06 08:57:42;;;;;;;2.92;2.40;;;;;;;20.44;64.53;95223.91;5006192;28;20666;-75
2021/07/06 09:00:10;;;;;;;5.03;1.95;;;;;;;20.00;65.74;95238.84;5000347;28;20211;-76
2021/07/06 09:02:35;;;;;;;3.75;1.83;;;;;;;19.49;67.70;95256.31;4988841;28;20302;-76
2021/07/06 09:05:00;;;;;;;5.15;1.92;;;;;;;19.42;68.49;95281.84;4988202;28;20279;-76
2021/07/06 09:07:41;;;;;;;2.72;1.20;;;;;;;19.09;69.06;95287.25;4992986;28;20251;-76
2021/07/06 09:10:19;;;;;;;3.90;1.50;;;;;;;18.66;73.05;95247.47;4991020;28;20234;-76
2021/07/06 09:12:45;;;;;;;1.95;1.20;;;;;;;18.52;73.77;95258.97;4989814;28;20777;-77
2021/07/06 09:15:31;;;;;;;1.60;1.05;;;;;;;18.46;73.89;95260.59;4991181;28;20180;-76
2021/07/06 09:18:15;;;;;;;1.75;1.15;;;;;;;18.64;74.67;95252.06;4992966;28;20210;-77
2021/07/06 09:20:42;;;;;;;1.35;1.10;;;;;;;18.58;74.78;95258.97;4991618;28;20178;-76
2021/07/06 09:23:21;;;;;;;1.95;0.80;;;;;;;18.57;73.86;95240.78;4973615;28;20732;-77
2021/07/06 09:25:47;;;;;;;0.80;0.75;;;;;;;18.57;73.80;95257.34;4986991;28;20738;-76
2021/07/06 09:28:23;;;;;;;0.70;0.70;;;;;;;18.59;73.69;95242.19;4988952;28;20263;-75
2021/07/06 09:30:48;;;;;;;0.80;0.70;;;;;;;18.49;73.29;95238.34;4992159;28;20237;-74
2021/07/06 09:33:25;;;;;;;0.50;0.50;;;;;;;18.46;73.45;95249.25;4972738;28;20217;-75
2021/07/06 09:35:50;;;;;;;0.73;0.57;;;;;;;18.35;72.08;95256.75;4974596;28;20199;-74
2021/07/06 09:38:16;;;;;;;0.40;0.40;;;;;;;18.36;72.08;95242.59;4990827;28;20210;-75
2021/07/06 09:40:42;;;;;;;0.60;0.60;;;;;;;18.45;72.13;95237.13;4992149;28;20179;-74
2021/07/06 09:43:24;;;;;;;0.68;0.50;;;;;;;18.46;70.41;95222.97;4990388;28;20211;-74
2021/07/06 09:46:05;;;;;;;1.00;0.47;;;;;;;18.35;70.53;95221.78;4990671;28;20191;-74
2021/07/06 09:48:32;;;;;;;0.45;0.40;;;;;;;18.76;70.09;95234.69;4981517;28;20180;-74
2021/07/06 09:51:15;;;;;;;1.00;0.50;;;;;;;18.74;70.47;95222.78;4973436;28;20714;-75
2021/07/06 09:53:41;;;;;;;0.50;0.50;;;;;;;18.83;69.78;95219.72;4971361;28;20218;-74
2021/07/06 09:56:12;;;;;;;1.15;0.50;;;;;;;18.83;69.56;95224.97;4987264;28;20608;-74
2021/07/06 09:58:59;;;;;;;0.63;0.40;;;;;;;18.63;69.20;95213.63;4990419;28;20226;-76
2021/07/06 10:01:25;;;;;;;0.55;0.55;;;;;;;18.75;69.74;95217.31;4985220;28;20204;-74
2021/07/06 10:03:51;;;;;;;0.60;0.60;;;;;;;18.91;68.33;95216.88;4990928;28;20709;-75
2021/07/06 10:06:18;;;;;;;0.47;0.47;;;;;;;19.15;68.46;95223.25;4993215;28;20188;-76
2021/07/06 10:08:43;;;;;;;0.40;0.40;;;;;;;19.34;67.65;95218.91;4995322;28;20275;-74
2021/07/06 10:11:08;;;;;;;1.17;0.40;;;;;;;19.24;67.17;95200.94;4996074;28;20191;-75
2021/07/06 10:13:36;;;;;;;0.52;0.50;;;;;;;19.22;67.11;95199.53;4994199;28;20211;-76
2021/07/06 10:16:04;;;;;;;0.55;0.55;;;;;;;19.39;65.91;95197.22;4991210;28;20188;-76
2021/07/06 10:18:32;;;;;;;0.60;0.60;;;;;;;19.41;64.78;95195.19;4994147;28;20195;-77
2021/07/06 10:21:02;;;;;;;0.50;0.50;;;;;;;19.24;66.12;95189.59;4994319;28;20186;-75
2021/07/06 10:23:27;;;;;;;1.15;0.65;;;;;;;19.12;66.19;95193.91;5010372;28;20208;-76
2021/07/06 10:25:54;;;;;;;0.73;0.50;;;;;;;19.02;66.46;95198.81;4995309;28;20529;-77
2021/07/06 10:28:21;;;;;;;0.65;0.60;;;;;;;19.12;67.12;95191.28;4993479;28;20184;-75
2021/07/06 10:30:48;;;;;;;0.50;0.50;;;;;;;19.13;67.03;95187.63;4977749;28;20207;-76
2021/07/06 10:33:15;;;;;;;0.47;0.47;;;;;;;19.03;67.11;95187.25;4993687;28;20630;-76
2021/07/06 10:35:41;;;;;;;0.50;0.50;;;;;;;19.18;66.97;95179.91;4994949;28;20174;-76
2021/07/06 10:38:28;;;;;;;0.50;0.50;;;;;;;19.29;65.70;95195.03;4993118;28;20212;-75
2021/07/06 10:41:39;;;;;;;0.50;0.50;;;;;;;19.58;65.16;95198.16;4994957;28;20214;-76
2021/07/06 10:44:06;;;;;;;0.50;0.50;;;;;;;19.46;64.86;95185.63;4982677;28;20196;-76
2021/07/06 10:46:37;;;;;;;0.40;0.40;;;;;;;19.88;64.45;95185.19;4974168;28;20176;-76
2021/07/06 10:49:07;;;;;;;0.50;0.50;;;;;;;19.90;64.62;95183.97;4988717;28;20795;-78
2021/07/06 10:51:32;;;;;;;0.55;0.50;;;;;;;19.91;65.04;95179.50;4994558;28;20204;-76
2021/07/06 10:54:17;;;;;;;0.82;0.40;;;;;;;20.17;63.76;95170.59;4995428;28;20234;-76
2021/07/06 10:56:51;;;;;;;0.40;0.40;;;;;;;20.16;64.28;95158.44;4992937;28;20647;-75
2021/07/06 10:59:35;;;;;;;0.40;0.40;;;;;;;20.56;63.87;95161.50;4996329;28;20765;-76
2021/07/06 11:02:04;;;;;;;1.92;0.45;;;;;;;20.22;63.82;95165.44;4992684;28;20222;-76
2021/07/06 11:07:08;;;;;;;0.38;0.38;;;;;;;20.12;62.59;95186.22;4994518;28;20187;-74
2021/07/06 11:09:34;;;;;;;0.30;0.30;;;;;;;20.14;62.97;95181.53;4992493;28;20184;-76
2021/07/06 11:12:21;;;;;;;0.50;0.50;;;;;;;19.68;64.37;95198.50;4994205;28;20227;-76
2021/07/06 11:14:53;;;;;;;0.60;0.57;;;;;;;19.60;65.12;95209.28;4977422;28;20180;-74
2021/07/06 11:17:37;;;;;;;0.45;0.45;;;;;;;19.39;66.02;95198.03;4993787;28;20864;-76
2021/07/06 11:20:29;;;;;;;0.40;0.40;;;;;;;19.44;66.78;95200.03;4991075;28;20194;-75
2021/07/06 11:22:56;;;;;;;1.40;0.40;;;;;;;19.33;66.36;95209.38;4992785;28;20203;-76
2021/07/06 11:25:26;;;;;;;0.60;0.60;;;;;;;19.24;66.68;95216.72;4973396;28;20250;-75
2021/07/06 11:28:04;;;;;;;0.82;0.50;;;;;;;19.26;66.13;95221.81;4973432;28;20180;-75
2021/07/06 11:30:50;;;;;;;0.30;0.30;;;;;;;19.30;65.85;95222.97;4977043;28;20673;-75
2021/07/06 11:33:37;;;;;;;0.47;0.47;;;;;;;19.27;66.66;95223.41;4992972;28;20199;-76
2021/07/06 11:36:28;;;;;;;0.68;0.45;;;;;;;19.07;67.06;95227.91;4992251;28;20180;-77
2021/07/06 11:38:55;;;;;;;0.50;0.47;;;;;;;19.18;67.33;95228.09;4997638;28;20287;-76